createdAt,value
2022-12-31T00:02:23.050Z,98779.23
2022-12-31T00:04:50.157Z,98785.04
2022-12-31T00:07:16.969Z,98781.42
2022-12-31T00:09:43.836Z,98783.77
2022-12-31T00:12:10.965Z,98783.41
2022-12-31T00:14:37.913Z,98783.91
2022-12-31T00:17:05.000Z,98784.09
2022-12-31T00:19:31.897Z,98777.39
2022-12-31T00:21:58.948Z,98778.06
2022-12-31T00:24:25.888Z,98775.25
2022-12-31T00:26:52.937Z,98778.88
2022-12-31T00:29:19.796Z,98787.34
2022-12-31T00:31:46.771Z,98789.19
2022-12-31T00:34:13.666Z,98787.91
2022-12-31T00:36:42.826Z,98795.96
2022-12-31T00:39:10.325Z,98801.67
2022-12-31T00:41:37.573Z,98798.96
2022-12-31T00:44:04.527Z,98796.77
2022-12-31T00:46:32.136Z,98799.94
2022-12-31T00:48:58.962Z,98801.55
2022-12-31T00:51:27.917Z,98803.08
2022-12-31T00:53:56.184Z,98805.61
2022-12-31T00:56:24.536Z,98801.44
2022-12-31T00:58:51.613Z,98795.95
2022-12-31T01:01:38.586Z,98797.84
2022-12-31T01:04:07.619Z,98798.04
2022-12-31T01:06:34.878Z,98798.65
2022-12-31T01:09:01.887Z,98801.43
2022-12-31T01:11:31.777Z,98803.00
2022-12-31T01:14:04.577Z,98800.54
2022-12-31T01:16:37.401Z,98802.06
2022-12-31T01:19:10.188Z,98802.34
2022-12-31T01:21:38.454Z,98799.97
2022-12-31T01:24:05.952Z,98799.27
2022-12-31T01:26:32.955Z,98805.02
2022-12-31T01:28:59.821Z,98810.48
2022-12-31T01:31:26.785Z,98813.73
2022-12-31T01:33:54.202Z,98810.60
2022-12-31T01:36:26.714Z,98817.29
2022-12-31T01:38:55.012Z,98820.29
2022-12-31T01:41:24.513Z,98828.91
2022-12-31T01:43:59.838Z,98833.96
2022-12-31T01:46:40.026Z,98828.67
2022-12-31T01:49:10.498Z,98814.20
2022-12-31T01:51:37.427Z,98802.91
2022-12-31T01:54:05.736Z,98791.83
2022-12-31T01:56:33.226Z,98786.74
2022-12-31T01:59:00.202Z,98797.77
2022-12-31T02:01:29.614Z,98798.19
2022-12-31T02:03:57.059Z,98794.07
2022-12-31T02:06:37.239Z,98792.20
2022-12-31T02:09:04.139Z,98793.86
2022-12-31T02:11:38.270Z,98788.33
2022-12-31T02:14:15.967Z,98788.48
2022-12-31T02:16:46.396Z,98780.45
2022-12-31T02:19:51.430Z,98778.71
2022-12-31T02:22:33.876Z,98778.61
2022-12-31T02:25:27.202Z,98782.48
2022-12-31T02:28:09.328Z,98789.89
2022-12-31T02:30:36.248Z,98795.64
2022-12-31T02:33:13.872Z,98794.52
2022-12-31T02:35:49.836Z,98798.31
2022-12-31T02:38:24.743Z,98796.10
2022-12-31T02:40:53.822Z,98795.83
2022-12-31T02:43:20.771Z,98800.31
2022-12-31T02:45:50.797Z,98806.02
2022-12-31T02:48:36.715Z,98811.47
2022-12-31T02:51:09.867Z,98812.68
2022-12-31T02:53:42.954Z,98814.20
2022-12-31T02:56:12.152Z,98813.56
2022-12-31T02:59:52.625Z,98809.20
2022-12-31T03:02:20.243Z,98822.41
2022-12-31T03:04:55.847Z,98827.93
2022-12-31T03:07:26.462Z,98823.17
2022-12-31T03:09:53.507Z,98829.17
2022-12-31T03:12:41.337Z,98828.71
2022-12-31T03:15:20.303Z,98826.81
2022-12-31T03:18:06.347Z,98835.91
2022-12-31T03:20:59.051Z,98835.46
2022-12-31T03:23:37.520Z,98833.73
2022-12-31T03:26:14.092Z,98835.33
2022-12-31T03:28:42.672Z,98835.56
2022-12-31T03:31:09.851Z,98826.81
2022-12-31T03:33:38.811Z,98824.59
2022-12-31T03:36:07.955Z,98830.32
2022-12-31T03:38:34.910Z,98835.08
2022-12-31T03:41:02.118Z,98832.53
2022-12-31T03:43:29.081Z,98838.04
2022-12-31T03:45:58.986Z,98828.73
2022-12-31T03:48:26.325Z,98826.28
2022-12-31T03:50:53.304Z,98830.86
2022-12-31T03:53:20.527Z,98834.84
2022-12-31T03:55:52.383Z,98840.34
2022-12-31T03:58:19.325Z,98841.52
2022-12-31T04:00:46.307Z,98845.18
2022-12-31T04:03:13.551Z,98845.92
2022-12-31T04:05:41.335Z,98848.67
2022-12-31T04:08:08.331Z,98852.42
2022-12-31T04:10:35.273Z,98855.80
2022-12-31T04:13:04.964Z,98857.39
2022-12-31T04:15:32.187Z,98850.26
2022-12-31T04:17:59.194Z,98852.27
2022-12-31T04:20:26.156Z,98854.17
2022-12-31T04:22:53.165Z,98860.96
2022-12-31T04:25:20.078Z,98860.45
2022-12-31T04:27:47.898Z,98862.23
2022-12-31T04:30:15.149Z,98862.89
2022-12-31T04:32:42.187Z,98868.23
2022-12-31T04:35:10.177Z,98873.18
2022-12-31T04:37:37.087Z,98877.94
2022-12-31T04:40:06.587Z,98878.66
2022-12-31T04:42:34.926Z,98876.52
2022-12-31T04:45:02.018Z,98878.14
2022-12-31T04:47:28.964Z,98876.36
2022-12-31T04:49:55.926Z,98868.68
2022-12-31T04:52:22.984Z,98865.89
2022-12-31T04:54:50.007Z,98870.73
2022-12-31T04:57:16.960Z,98881.80
2022-12-31T04:59:43.879Z,98883.45
2022-12-31T05:02:11.117Z,98889.27
2022-12-31T05:04:38.299Z,98890.23
2022-12-31T05:07:05.478Z,98890.89
2022-12-31T05:09:32.598Z,98882.02
2022-12-31T05:11:59.647Z,98883.57
2022-12-31T05:14:26.748Z,98884.90
2022-12-31T05:16:53.905Z,98876.73
2022-12-31T05:19:20.882Z,98877.74
2022-12-31T05:22:07.800Z,98877.23
2022-12-31T05:24:34.592Z,98872.09
2022-12-31T05:27:01.603Z,98885.76
2022-12-31T05:29:28.505Z,98871.95
2022-12-31T05:31:55.368Z,98871.17
2022-12-31T05:34:22.313Z,98868.61
2022-12-31T05:36:49.258Z,98863.97
2022-12-31T05:39:16.268Z,98862.27
2022-12-31T05:41:43.159Z,98864.41
2022-12-31T05:44:11.112Z,98868.07
2022-12-31T05:46:38.161Z,98865.85
2022-12-31T05:49:05.207Z,98868.20
2022-12-31T05:51:32.184Z,98867.09
2022-12-31T05:53:59.101Z,98863.03
2022-12-31T05:56:26.175Z,98852.77
2022-12-31T05:58:53.152Z,98856.02
2022-12-31T06:01:24.169Z,98853.49
2022-12-31T06:03:51.450Z,98851.77
2022-12-31T06:06:18.430Z,98849.52
2022-12-31T06:08:49.876Z,98851.38
2022-12-31T06:11:16.819Z,98853.14
2022-12-31T06:13:44.395Z,98857.81
2022-12-31T06:16:13.404Z,98862.17
2022-12-31T06:18:40.424Z,98859.19
2022-12-31T06:21:09.724Z,98861.80
2022-12-31T06:23:39.755Z,98864.11
2022-12-31T06:26:07.305Z,98867.89
2022-12-31T06:28:34.138Z,98871.46
2022-12-31T06:31:05.599Z,98876.16
2022-12-31T06:33:32.641Z,98879.98
2022-12-31T06:36:01.736Z,98877.89
2022-12-31T06:38:29.904Z,98879.91
2022-12-31T06:41:03.197Z,98877.98
2022-12-31T06:43:33.117Z,98880.89
2022-12-31T06:46:04.227Z,98887.64
2022-12-31T06:48:31.402Z,98884.04
2022-12-31T06:51:17.420Z,98887.81
2022-12-31T06:53:48.755Z,98891.88
2022-12-31T06:56:31.353Z,98896.33
2022-12-31T06:59:01.380Z,98896.69
2022-12-31T07:01:39.167Z,98891.66
2022-12-31T07:04:21.685Z,98889.98
2022-12-31T07:06:53.540Z,98880.02
2022-12-31T07:09:30.213Z,98887.36
2022-12-31T07:12:11.829Z,98897.66
2022-12-31T07:14:46.530Z,98899.77
2022-12-31T07:17:35.438Z,98893.95
2022-12-31T07:20:07.039Z,98881.69
2022-12-31T07:22:34.299Z,98876.23
2022-12-31T07:25:02.079Z,98863.35
2022-12-31T07:27:50.618Z,98861.02
2022-12-31T07:30:22.355Z,98859.27
2022-12-31T07:33:04.976Z,98860.63
2022-12-31T07:35:39.398Z,98865.52
2022-12-31T07:38:13.306Z,98868.00
2022-12-31T07:41:14.653Z,98866.52
2022-12-31T07:44:08.537Z,98869.59
2022-12-31T07:47:02.425Z,98863.34
2022-12-31T07:49:30.273Z,98867.73
2022-12-31T07:51:57.651Z,98871.43
2022-12-31T07:54:24.686Z,98872.40
2022-12-31T07:56:51.659Z,98871.55
2022-12-31T07:59:44.366Z,98875.72
2022-12-31T08:02:33.714Z,98877.23
2022-12-31T08:05:26.379Z,98881.73
2022-12-31T08:07:59.468Z,98880.64
2022-12-31T08:10:38.396Z,98874.19
2022-12-31T08:13:08.985Z,98870.58
2022-12-31T08:15:38.235Z,98871.75
2022-12-31T08:18:06.725Z,98883.65
2022-12-31T08:20:34.675Z,98880.55
2022-12-31T08:23:20.056Z,98870.45
2022-12-31T08:26:16.281Z,98871.20
2022-12-31T08:29:08.439Z,98875.04
2022-12-31T08:31:37.504Z,98864.45
2022-12-31T08:34:44.908Z,98866.08
2022-12-31T08:37:40.426Z,98870.37
2022-12-31T08:40:27.083Z,98878.63
2022-12-31T08:43:13.911Z,98876.91
2022-12-31T08:45:50.541Z,98871.83
2022-12-31T08:48:42.849Z,98875.83
2022-12-31T08:51:28.457Z,98875.20
2022-12-31T08:53:55.768Z,98881.83
2022-12-31T08:56:28.679Z,98879.56
2022-12-31T08:59:17.838Z,98881.48
2022-12-31T09:02:13.056Z,98869.90
2022-12-31T09:04:52.579Z,98874.05
2022-12-31T09:07:23.832Z,98862.11
2022-12-31T09:10:09.727Z,98860.52
2022-12-31T09:12:42.292Z,98854.70
2022-12-31T09:15:23.980Z,98848.87
2022-12-31T09:17:51.247Z,98848.55
2022-12-31T09:20:42.276Z,98846.81
2022-12-31T09:24:34.792Z,98847.90
2022-12-31T09:27:13.825Z,98843.13
2022-12-31T09:30:04.627Z,98846.36
2022-12-31T09:33:01.299Z,98845.86
2022-12-31T09:36:03.947Z,98846.13
2022-12-31T09:38:44.352Z,98845.05
2022-12-31T09:41:17.598Z,98845.77
2022-12-31T09:44:20.279Z,98842.05
2022-12-31T09:47:17.624Z,98853.88
2022-12-31T09:50:22.062Z,98851.19
2022-12-31T09:52:51.894Z,98840.68
2022-12-31T09:55:33.879Z,98837.89
2022-12-31T09:58:35.230Z,98832.53
2022-12-31T10:01:21.326Z,98829.89
2022-12-31T10:04:27.408Z,98827.89
2022-12-31T10:07:19.512Z,98811.31
2022-12-31T10:10:01.759Z,98805.13
2022-12-31T10:13:03.480Z,98802.59
2022-12-31T10:15:36.268Z,98805.47
2022-12-31T10:18:37.105Z,98802.05
2022-12-31T10:21:28.719Z,98807.09
2022-12-31T10:23:58.657Z,98805.77
2022-12-31T10:26:30.598Z,98800.00
2022-12-31T10:29:34.715Z,98795.46
2022-12-31T10:32:13.331Z,98795.15
2022-12-31T10:35:02.809Z,98800.83
2022-12-31T10:37:41.930Z,98800.08
2022-12-31T10:40:49.634Z,98795.69
2022-12-31T10:43:22.647Z,98790.39
2022-12-31T10:46:05.384Z,98789.77
2022-12-31T10:48:50.815Z,98788.45
2022-12-31T10:51:59.640Z,98783.88
2022-12-31T10:54:58.248Z,98779.90
2022-12-31T10:58:04.579Z,98780.48
2022-12-31T11:00:37.307Z,98776.69
2022-12-31T11:03:38.357Z,98771.94
2022-12-31T11:06:32.713Z,98768.27
2022-12-31T11:09:34.250Z,98770.42
2022-12-31T11:12:16.720Z,98767.88
2022-12-31T11:15:13.519Z,98767.69
2022-12-31T11:17:58.762Z,98765.80
2022-12-31T11:20:28.707Z,98753.00
2022-12-31T11:23:02.023Z,98755.92
2022-12-31T11:25:29.771Z,98749.82
2022-12-31T11:27:59.778Z,98743.28
2022-12-31T11:30:54.306Z,98735.02
2022-12-31T11:33:30.239Z,98731.59
2022-12-31T11:36:13.872Z,98740.54
2022-12-31T11:38:54.117Z,98743.67
2022-12-31T11:41:31.300Z,98751.09
2022-12-31T11:44:07.360Z,98747.94
2022-12-31T11:46:45.732Z,98751.81
2022-12-31T11:49:24.091Z,98752.88
2022-12-31T11:52:09.087Z,98761.36
2022-12-31T11:54:58.120Z,98761.13
2022-12-31T11:57:38.987Z,98766.96
2022-12-31T12:00:09.781Z,98767.33
2022-12-31T12:03:05.582Z,98767.73
2022-12-31T12:05:32.594Z,98767.53
2022-12-31T12:07:59.536Z,98763.02
2022-12-31T12:10:36.495Z,98765.27
2022-12-31T16:42:54.490Z,98812.95
2022-12-31T16:45:33.207Z,98815.58
2022-12-31T16:48:16.767Z,98824.77
2022-12-31T16:50:52.862Z,98820.50
2022-12-31T16:53:21.237Z,98811.55
2022-12-31T16:55:54.290Z,98817.59
2022-12-31T16:58:23.360Z,98810.36
2022-12-31T17:00:50.311Z,98807.45
2022-12-31T17:03:36.691Z,98810.15
2022-12-31T17:06:06.946Z,98823.77
2022-12-31T17:08:44.423Z,98829.46
2022-12-31T17:11:32.061Z,98835.27
2022-12-31T17:14:16.627Z,98838.02
2022-12-31T17:17:01.706Z,98838.42
2022-12-31T17:19:36.144Z,98840.23
2022-12-31T17:22:04.471Z,98841.54
2022-12-31T17:24:31.625Z,98830.84
2022-12-31T17:27:04.118Z,98832.27
2022-12-31T17:29:31.043Z,98823.30
2022-12-31T17:32:20.405Z,98823.64
2022-12-31T17:34:48.604Z,98824.50
2022-12-31T17:37:19.936Z,98824.27
2022-12-31T17:39:52.417Z,98827.34
2022-12-31T17:42:34.294Z,98831.80
2022-12-31T17:45:03.463Z,98845.37
2022-12-31T17:47:37.932Z,98841.57
2022-12-31T17:50:22.559Z,98844.77
2022-12-31T17:52:49.523Z,98848.63
2022-12-31T17:55:16.608Z,98852.08
2022-12-31T17:58:03.946Z,98856.16
2022-12-31T18:00:31.143Z,98855.75
2022-12-31T18:03:00.029Z,98849.92
2022-12-31T18:05:27.193Z,98853.14
2022-12-31T18:07:54.845Z,98855.74
2022-12-31T18:10:23.158Z,98860.70
2022-12-31T18:12:50.683Z,98857.57
2022-12-31T18:15:20.313Z,98849.80
2022-12-31T18:17:47.262Z,98852.68
2022-12-31T18:20:14.485Z,98860.23
2022-12-31T18:22:44.500Z,98863.28
2022-12-31T18:25:21.403Z,98867.73
2022-12-31T18:27:51.215Z,98863.61
2022-12-31T18:30:18.652Z,98867.27
2022-12-31T18:32:45.903Z,98865.94
2022-12-31T18:38:14.407Z,98854.73
2022-12-31T18:40:44.629Z,98856.61
2022-12-31T18:43:16.414Z,98851.92
2022-12-31T18:45:44.029Z,98847.50
2022-12-31T18:48:11.093Z,98849.86
2022-12-31T18:50:38.135Z,98852.48
2022-12-31T18:53:05.393Z,98841.08
2022-12-31T18:55:43.491Z,98849.67
2022-12-31T18:58:10.458Z,98848.53
2022-12-31T19:00:38.220Z,98846.20
2022-12-31T19:03:05.884Z,98844.98
2022-12-31T19:05:34.068Z,98850.34
2022-12-31T19:08:01.009Z,98855.63
2022-12-31T19:10:28.255Z,98851.39
2022-12-31T19:12:55.491Z,98853.70
2022-12-31T19:15:27.036Z,98849.60
2022-12-31T19:17:53.999Z,98852.02
2022-12-31T19:20:20.926Z,98861.65
2022-12-31T19:22:47.911Z,98859.06
2022-12-31T19:25:26.101Z,98862.58
2022-12-31T19:27:53.447Z,98859.16
2022-12-31T19:30:25.322Z,98858.09
2022-12-31T19:32:52.363Z,98860.34
2022-12-31T19:35:20.005Z,98862.19
2022-12-31T19:37:48.079Z,98867.83
2022-12-31T19:40:18.607Z,98870.48
2022-12-31T19:42:48.108Z,98871.77
2022-12-31T19:45:20.067Z,98872.89
2022-12-31T19:47:47.639Z,98867.85
2022-12-31T19:50:16.226Z,98868.02
2022-12-31T19:52:43.685Z,98868.72
2022-12-31T19:55:17.008Z,98868.64
2022-12-31T19:57:43.911Z,98865.85
2022-12-31T20:00:11.800Z,98867.85
2022-12-31T20:02:39.073Z,98866.73
2022-12-31T20:05:06.896Z,98867.27
2022-12-31T20:07:34.277Z,98869.20
2022-12-31T20:10:01.327Z,98879.35
2022-12-31T20:12:28.444Z,98884.97
2022-12-31T20:14:55.695Z,98886.29
2022-12-31T20:17:22.755Z,98883.66
2022-12-31T20:19:49.687Z,98886.66
2022-12-31T20:22:18.985Z,98890.23
2022-12-31T20:24:45.871Z,98897.14
2022-12-31T20:27:18.278Z,98901.20
2022-12-31T20:29:45.923Z,98905.43
2022-12-31T20:32:13.017Z,98894.29
2022-12-31T20:34:42.142Z,98890.62
2022-12-31T20:37:09.156Z,98889.07
2022-12-31T20:39:36.099Z,98884.76
2022-12-31T20:42:02.947Z,98883.75
2022-12-31T20:44:29.996Z,98875.96
2022-12-31T20:46:57.035Z,98870.20
2022-12-31T20:49:44.872Z,98865.80
2022-12-31T20:52:10.913Z,98862.88
2022-12-31T20:54:37.733Z,98858.40
2022-12-31T20:57:04.706Z,98858.17
2022-12-31T20:59:31.636Z,98858.85
2022-12-31T21:02:21.208Z,98859.30
2022-12-31T21:04:49.047Z,98867.44
2022-12-31T21:07:16.359Z,98861.80
2022-12-31T21:09:46.443Z,98868.33
2022-12-31T21:12:32.954Z,98869.02
2022-12-31T21:15:00.528Z,98870.44
2022-12-31T21:17:27.447Z,98877.60
2022-12-31T21:19:54.620Z,98877.79
2022-12-31T21:22:24.852Z,98873.92
2022-12-31T21:24:52.598Z,98868.63
2022-12-31T21:27:22.194Z,98867.08
2022-12-31T21:30:17.739Z,98864.00
2022-12-31T21:32:43.334Z,98870.70
2022-12-31T21:38:07.010Z,98869.02
2022-12-31T21:40:34.119Z,98878.38
2022-12-31T21:43:02.297Z,98887.64
2022-12-31T21:45:31.270Z,98889.20
2022-12-31T21:48:20.180Z,98890.73
2022-12-31T21:50:48.796Z,98885.20
2022-12-31T21:53:23.510Z,98887.15
2022-12-31T21:56:10.124Z,98889.65
2022-12-31T21:58:41.657Z,98892.63
2022-12-31T22:01:38.852Z,98897.29
2022-12-31T22:04:07.928Z,98901.91
2022-12-31T22:06:40.087Z,98907.27
2022-12-31T22:09:07.009Z,98912.32
2022-12-31T22:11:34.058Z,98911.40
2022-12-31T22:14:02.086Z,98909.16
2022-12-31T22:16:29.159Z,98912.85
2022-12-31T22:18:58.780Z,98909.46
2022-12-31T22:21:27.181Z,98905.10
2022-12-31T22:23:59.105Z,98908.05
2022-12-31T22:26:30.002Z,98907.49
2022-12-31T22:28:59.914Z,98910.60
2022-12-31T22:31:30.211Z,98910.50
2022-12-31T22:33:58.311Z,98915.64
2022-12-31T22:36:25.736Z,98914.17
2022-12-31T22:38:55.738Z,98911.36
2022-12-31T22:41:23.403Z,98918.48
2022-12-31T22:44:02.692Z,98918.27
2022-12-31T22:46:40.160Z,98915.13
2022-12-31T22:49:07.074Z,98909.05
2022-12-31T22:51:55.813Z,98902.14
2022-12-31T22:54:21.128Z,98907.20
2022-12-31T22:56:48.117Z,98901.10
2022-12-31T22:59:15.130Z,98899.91
2022-12-31T23:01:42.186Z,98904.01
2022-12-31T23:04:09.150Z,98906.89
2022-12-31T23:06:47.528Z,98904.69
2022-12-31T23:09:34.378Z,98905.15
2022-12-31T23:12:05.828Z,98900.58
2022-12-31T23:14:51.691Z,98905.88
2022-12-31T23:17:41.685Z,98906.09
2022-12-31T23:20:34.784Z,98903.31
2022-12-31T23:23:09.965Z,98904.48
2022-12-31T23:25:40.112Z,98899.98
2022-12-31T23:28:15.128Z,98901.14
2022-12-31T23:30:42.585Z,98896.14
2022-12-31T23:33:14.231Z,98887.36
2022-12-31T23:35:41.283Z,98892.52
2022-12-31T23:38:08.233Z,98891.64
2022-12-31T23:40:35.165Z,98896.36
2022-12-31T23:43:03.657Z,98899.84
2022-12-31T23:45:33.341Z,98900.59
2022-12-31T23:48:03.263Z,98898.28
2022-12-31T23:50:33.282Z,98892.55
2022-12-31T23:53:00.130Z,98898.28
2022-12-31T23:55:27.081Z,98894.11
2022-12-31T23:57:54.019Z,98893.77
